createdAt,value
2023-05-24T00:01:44.491Z,98245.47
2023-05-24T00:04:18.314Z,98245.47
2023-05-24T00:06:49.182Z,98259.38
2023-05-24T00:09:23.508Z,98256.88
2023-05-24T00:11:55.957Z,98251.66
2023-05-24T00:14:29.615Z,98247.38
2023-05-24T00:17:04.937Z,98243.44
2023-05-24T00:19:39.529Z,98247.75
2023-05-24T00:22:09.660Z,98248.94
2023-05-24T00:24:39.981Z,98243.03
2023-05-24T00:27:11.826Z,98225.72
2023-05-24T00:29:43.594Z,98233.25
2023-05-24T00:34:59.187Z,98233.97
2023-05-24T00:37:29.913Z,98236.56
2023-05-24T00:40:01.494Z,98238.53
2023-05-24T00:45:20.006Z,98234.69
2023-05-24T00:47:51.704Z,98235.84
2023-05-24T00:50:29.386Z,98243.28
2023-05-24T00:53:03.478Z,98250.59
2023-05-24T00:55:35.311Z,98250.78
2023-05-24T00:58:06.218Z,98252.81
2023-05-24T01:00:42.820Z,98259.34
2023-05-24T01:03:12.761Z,98244.59
2023-05-24T01:05:43.805Z,98250.03
2023-05-24T01:12:11.396Z,98258.97
2023-05-24T01:15:10.595Z,98240.97
2023-05-24T01:17:56.416Z,98260.38
2023-05-24T01:20:36.255Z,98250.03
2023-05-24T01:24:06.994Z,98249.34
2023-05-24T01:27:35.320Z,98249.56
2023-05-24T01:30:09.280Z,98258.31
2023-05-24T01:32:39.968Z,98264.28
2023-05-24T01:35:14.224Z,98261.50
2023-05-24T01:40:30.701Z,98260.75
2023-05-24T01:43:37.614Z,98247.78
2023-05-24T01:46:36.295Z,98237.31
2023-05-24T01:49:33.599Z,98261.25
2023-05-24T01:52:29.457Z,98232.34
2023-05-24T01:55:03.979Z,98242.69
2023-05-24T01:57:45.688Z,98244.78
2023-05-24T02:00:20.170Z,98261.94
2023-05-24T02:02:51.013Z,98259.06
2023-05-24T02:05:22.090Z,98260.28
2023-05-24T02:07:55.906Z,98265.91
2023-05-24T02:10:33.505Z,98268.41
2023-05-24T02:13:02.703Z,98261.94
2023-05-24T02:15:35.764Z,98273.38
2023-05-24T02:18:08.968Z,98265.84
2023-05-24T02:20:42.813Z,98274.38
2023-05-24T02:23:13.405Z,98283.25
2023-05-24T02:25:47.967Z,98283.94
2023-05-24T02:31:15.892Z,98282.81
2023-05-24T02:33:45.258Z,98285.91
2023-05-24T02:36:15.820Z,98286.03
2023-05-24T02:38:49.242Z,98289.66
2023-05-24T02:41:22.881Z,98287.94
2023-05-24T02:43:53.930Z,98284.25
2023-05-24T02:46:25.631Z,98296.81
2023-05-24T02:48:55.872Z,98289.16
2023-05-24T02:51:31.762Z,98292.56
2023-05-24T02:56:52.992Z,98293.75
2023-05-24T02:59:29.299Z,98264.25
2023-05-24T03:02:00.166Z,98290.16
2023-05-24T03:04:33.814Z,98286.03
2023-05-24T03:07:05.146Z,98294.75
2023-05-24T03:09:55.138Z,98271.69
2023-05-24T03:12:25.193Z,98295.72
2023-05-24T03:14:59.394Z,98288.13
2023-05-24T03:17:34.981Z,98299.41
2023-05-24T03:20:09.442Z,98298.44
2023-05-24T03:22:40.113Z,98307.47
2023-05-24T03:25:12.233Z,98294.22
2023-05-24T03:27:46.095Z,98287.41
2023-05-24T03:30:19.873Z,98301.13
2023-05-24T03:33:03.720Z,98305.00
2023-05-24T03:35:44.520Z,98304.59
2023-05-24T03:38:23.473Z,98294.63
2023-05-24T03:40:58.524Z,98306.31
2023-05-24T03:43:29.880Z,98298.78
2023-05-24T03:46:09.907Z,98269.78
2023-05-24T03:48:42.456Z,98308.06
2023-05-24T03:51:18.705Z,98318.09
2023-05-24T03:53:54.788Z,98323.47
2023-05-24T03:56:34.417Z,98319.44
2023-05-24T03:59:07.321Z,98303.13
2023-05-24T04:01:40.528Z,98328.94
2023-05-24T04:04:10.751Z,98331.50
2023-05-24T04:06:42.478Z,98337.75
2023-05-24T04:09:13.105Z,98338.03
2023-05-24T04:11:45.255Z,98336.34
2023-05-24T04:14:17.250Z,98338.63
2023-05-24T04:16:50.811Z,98333.00
2023-05-24T04:19:22.885Z,98336.13
2023-05-24T04:22:00.224Z,98341.03
2023-05-24T04:24:30.932Z,98341.69
2023-05-24T04:27:01.995Z,98345.09
2023-05-24T04:29:36.516Z,98339.16
2023-05-24T04:32:14.564Z,98350.41
2023-05-24T04:34:48.455Z,98351.09
2023-05-24T04:37:18.916Z,98355.50
2023-05-24T04:39:57.137Z,98349.44
2023-05-24T04:42:36.353Z,98350.53
2023-05-24T04:45:10.208Z,98348.81
2023-05-24T04:47:47.408Z,98352.34
2023-05-24T04:50:25.736Z,98353.38
2023-05-24T04:52:54.713Z,98358.31
2023-05-24T04:55:25.367Z,98355.06
2023-05-24T04:57:58.250Z,98351.41
2023-05-24T05:00:36.126Z,98357.94
2023-05-24T05:03:06.719Z,98356.63
2023-05-24T05:05:34.668Z,98357.13
2023-05-24T05:08:08.889Z,98362.94
2023-05-24T05:10:42.690Z,98364.22
2023-05-24T05:13:14.980Z,98373.66
2023-05-24T05:15:45.849Z,98378.44
2023-05-24T05:18:20.214Z,98377.13
2023-05-24T05:20:57.840Z,98383.66
2023-05-24T05:23:27.088Z,98384.94
2023-05-24T05:25:57.857Z,98385.28
2023-05-24T05:28:29.216Z,98389.97
2023-05-24T05:31:02.839Z,98390.16
2023-05-24T05:33:54.203Z,98392.97
2023-05-24T05:36:22.710Z,98392.16
2023-05-24T05:38:53.969Z,98395.59
2023-05-24T05:41:24.542Z,98402.69
2023-05-24T05:43:55.754Z,98404.41
2023-05-24T05:46:26.610Z,98399.06
2023-05-24T05:48:57.137Z,98393.59
2023-05-24T05:51:28.279Z,98392.22
2023-05-24T05:53:58.419Z,98391.69
2023-05-24T05:56:28.744Z,98393.47
2023-05-24T05:58:58.997Z,98399.84
2023-05-24T06:01:35.250Z,98407.75
2023-05-24T06:04:12.909Z,98403.22
2023-05-24T06:06:50.141Z,98407.56
2023-05-24T06:09:21.017Z,98411.06
2023-05-24T06:11:58.412Z,98418.84
2023-05-24T06:14:28.829Z,98424.31
2023-05-24T06:17:00.166Z,98414.88
2023-05-24T06:22:21.968Z,98416.66
2023-05-24T06:24:59.731Z,98419.31
2023-05-24T06:27:31.546Z,98423.03
2023-05-24T06:30:10.401Z,98408.50
2023-05-24T06:32:39.902Z,98412.00
2023-05-24T06:35:14.244Z,98415.97
2023-05-24T06:37:51.275Z,98419.38
2023-05-24T06:40:21.818Z,98417.28
2023-05-24T06:42:52.844Z,98435.75
2023-05-24T06:45:24.227Z,98428.09
2023-05-24T06:47:55.634Z,98435.75
2023-05-24T06:50:24.065Z,98442.72
2023-05-24T06:52:58.951Z,98436.19
2023-05-24T06:55:29.607Z,98432.63
2023-05-24T06:58:04.067Z,98425.19
2023-05-24T07:00:39.869Z,98434.94
2023-05-24T07:05:59.363Z,98439.72
2023-05-24T07:08:33.746Z,98442.63
2023-05-24T07:11:09.542Z,98445.75
2023-05-24T07:13:48.718Z,98438.78
2023-05-24T07:16:18.765Z,98439.97
2023-05-24T07:18:50.242Z,98446.34
2023-05-24T07:21:20.719Z,98444.25
2023-05-24T07:23:58.106Z,98445.31
2023-05-24T07:26:39.675Z,98448.72
2023-05-24T07:29:25.011Z,98448.56
2023-05-24T07:31:55.392Z,98449.03
2023-05-24T07:34:31.184Z,98448.22
2023-05-24T07:37:02.071Z,98453.44
2023-05-24T07:39:29.718Z,98445.06
2023-05-24T07:42:06.960Z,98446.69
2023-05-24T07:44:37.844Z,98442.13
2023-05-24T07:47:08.430Z,98442.91
2023-05-24T07:49:38.865Z,98442.56
2023-05-24T07:52:10.448Z,98438.25
2023-05-24T07:54:42.463Z,98448.63
2023-05-24T07:57:13.011Z,98450.75
2023-05-24T07:59:41.916Z,98441.53
2023-05-24T08:02:12.795Z,98445.59
2023-05-24T08:04:46.810Z,98449.22
2023-05-24T08:07:20.463Z,98440.31
2023-05-24T08:09:54.114Z,98433.78
2023-05-24T08:12:26.043Z,98431.69
2023-05-24T08:14:57.992Z,98433.56
2023-05-24T08:17:38.324Z,98432.50
2023-05-24T08:20:12.052Z,98442.22
2023-05-24T08:22:46.769Z,98439.88
2023-05-24T08:25:16.767Z,98436.38
2023-05-24T08:27:47.007Z,98433.66
2023-05-24T08:30:23.271Z,98430.44
2023-05-24T08:33:01.288Z,98432.09
2023-05-24T08:35:39.060Z,98425.13
2023-05-24T08:38:07.825Z,98434.16
2023-05-24T08:40:38.818Z,98430.47
2023-05-24T08:43:14.757Z,98435.34
2023-05-24T08:45:52.469Z,98424.19
2023-05-24T08:48:25.757Z,98424.31
2023-05-24T08:51:10.491Z,98424.66
2023-05-24T08:53:56.193Z,98423.41
2023-05-24T08:56:28.881Z,98424.59
2023-05-24T08:59:00.826Z,98426.13
2023-05-24T09:01:36.028Z,98418.88
2023-05-24T09:04:10.685Z,98423.47
2023-05-24T09:06:42.215Z,98430.81
2023-05-24T09:09:11.460Z,98429.63
2023-05-24T09:11:43.781Z,98426.84
2023-05-24T09:14:18.544Z,98423.84
2023-05-24T09:16:52.337Z,98435.34
2023-05-24T09:19:24.248Z,98437.84
2023-05-24T09:24:47.866Z,98429.53
2023-05-24T09:27:25.523Z,98431.59
2023-05-24T09:29:55.242Z,98436.44
2023-05-24T09:32:28.793Z,98428.78
2023-05-24T09:35:07.887Z,98435.97
2023-05-24T09:37:39.104Z,98435.41
2023-05-24T09:40:11.575Z,98431.50
2023-05-24T09:42:48.318Z,98439.44
2023-05-24T09:45:19.335Z,98436.69
2023-05-24T09:47:50.337Z,98434.75
2023-05-24T09:50:21.012Z,98429.63
2023-05-24T09:52:58.618Z,98427.94
2023-05-24T09:55:35.993Z,98424.75
2023-05-24T09:58:15.309Z,98418.31
2023-05-24T10:00:46.257Z,98369.19
2023-05-24T10:03:25.829Z,98425.94
2023-05-24T10:05:58.140Z,98425.13
2023-05-24T10:08:27.914Z,98420.88
2023-05-24T10:10:58.917Z,98418.13
2023-05-24T10:13:27.687Z,98415.03
2023-05-24T10:16:11.226Z,98409.06
2023-05-24T10:18:42.220Z,98405.53
2023-05-24T10:21:14.791Z,98410.44
2023-05-24T10:23:47.291Z,98410.59
2023-05-24T10:26:20.357Z,98408.88
2023-05-24T10:28:52.720Z,98408.41
2023-05-24T10:31:52.936Z,98415.78
2023-05-24T10:34:28.164Z,98414.03
2023-05-24T10:37:00.338Z,98416.28
2023-05-24T10:39:34.733Z,98418.00
2023-05-24T10:42:09.738Z,98420.03
2023-05-24T10:44:41.202Z,98418.53
2023-05-24T10:47:20.075Z,98420.00
2023-05-24T10:49:59.999Z,98412.34
2023-05-24T10:52:37.429Z,98408.84
2023-05-24T10:55:20.388Z,98401.84
2023-05-24T10:57:50.119Z,98412.88
2023-05-24T11:03:17.223Z,98409.84
2023-05-24T11:05:58.097Z,98404.69
2023-05-24T11:08:39.725Z,98410.81
2023-05-24T11:11:26.651Z,98417.00
2023-05-24T11:14:13.971Z,98419.13
2023-05-24T11:16:46.222Z,98414.72
2023-05-24T11:19:27.599Z,98416.63
2023-05-24T11:22:05.272Z,98408.50
2023-05-24T11:24:36.042Z,98415.00
2023-05-24T11:27:09.963Z,98405.69
2023-05-24T11:29:53.419Z,98414.09
2023-05-24T11:32:24.265Z,98417.97
2023-05-24T11:34:58.274Z,98420.78
2023-05-24T11:37:45.181Z,98422.13
2023-05-24T11:40:24.294Z,98429.97
2023-05-24T11:42:55.532Z,98436.06
2023-05-24T11:45:29.770Z,98442.81
2023-05-24T11:47:58.002Z,98448.41
2023-05-24T11:50:28.776Z,98454.88
2023-05-24T11:53:10.774Z,98442.63
2023-05-24T11:55:43.889Z,98454.06
2023-05-24T11:58:42.358Z,98447.66
2023-05-24T12:01:38.412Z,98442.94
2023-05-24T12:04:11.387Z,98442.75
2023-05-24T12:07:00.159Z,98430.38
2023-05-24T12:09:32.309Z,98432.63
2023-05-24T12:12:10.113Z,98428.53
2023-05-24T12:14:42.732Z,98429.09
2023-05-24T12:17:28.627Z,98419.91
2023-05-24T12:20:02.528Z,98428.75
2023-05-24T12:22:36.928Z,98432.47
2023-05-24T12:25:10.980Z,98433.16
2023-05-24T12:27:52.258Z,98432.13
2023-05-24T12:30:30.838Z,98415.78
2023-05-24T12:33:00.710Z,98420.38
2023-05-24T12:35:34.342Z,98417.59
2023-05-24T12:38:10.035Z,98420.66
2023-05-24T12:40:41.510Z,98408.09
2023-05-24T12:43:12.858Z,98412.00
2023-05-24T12:45:56.078Z,98405.06
2023-05-24T12:48:27.155Z,98394.50
2023-05-24T12:51:00.733Z,98390.44
2023-05-24T12:53:41.449Z,98377.41
2023-05-24T12:56:13.254Z,98374.72
2023-05-24T12:58:49.281Z,98368.22
2023-05-24T13:01:19.905Z,98369.84
2023-05-24T13:03:58.726Z,98378.50
2023-05-24T13:06:35.721Z,98383.16
2023-05-24T13:09:14.141Z,98382.47
2023-05-24T13:11:42.525Z,98383.09
2023-05-24T13:14:18.590Z,98384.75
2023-05-24T13:16:49.328Z,98393.50
2023-05-24T13:22:05.280Z,98392.34
2023-05-24T13:24:37.090Z,98401.28
2023-05-24T13:27:12.324Z,98396.31
2023-05-24T13:29:56.445Z,98389.91
2023-05-24T13:32:32.236Z,98392.88
2023-05-24T13:35:02.890Z,98395.91
2023-05-24T13:37:43.973Z,98388.25
2023-05-24T13:40:22.030Z,98385.00
2023-05-24T13:42:54.039Z,98381.09
2023-05-24T13:45:26.745Z,98376.16
2023-05-24T13:48:06.542Z,98373.28
2023-05-24T13:50:38.116Z,98380.34
2023-05-24T13:53:08.604Z,98373.81
2023-05-24T13:55:39.975Z,98365.09
2023-05-24T13:58:13.443Z,98364.59
2023-05-24T14:00:46.540Z,98365.16
2023-05-24T14:03:19.060Z,98357.75
2023-05-24T14:05:49.626Z,98370.75
2023-05-24T14:08:20.808Z,98364.69
2023-05-24T14:11:00.537Z,98367.38
2023-05-24T14:16:21.444Z,98370.53
2023-05-24T14:19:01.040Z,98368.63
2023-05-24T14:21:35.698Z,98371.06
2023-05-24T14:24:07.308Z,98369.16
2023-05-24T14:26:36.266Z,98364.44
2023-05-24T14:29:10.163Z,98348.97
2023-05-24T14:31:44.605Z,98346.44
2023-05-24T14:37:02.138Z,98345.06
2023-05-24T14:39:37.240Z,98348.47
2023-05-24T14:42:08.507Z,98346.41
2023-05-24T14:44:39.782Z,98357.25
2023-05-24T14:47:12.803Z,98348.50
2023-05-24T14:49:41.341Z,98348.53
2023-05-24T14:52:10.275Z,98349.84
2023-05-24T14:54:39.304Z,98366.16
2023-05-24T14:57:23.306Z,98354.56
2023-05-24T15:02:43.405Z,98355.50
2023-05-24T15:05:21.623Z,98367.53
2023-05-24T15:07:51.627Z,98369.22
2023-05-24T15:10:22.267Z,98360.75
2023-05-24T15:13:02.349Z,98366.16
2023-05-24T15:15:47.011Z,98364.16
2023-05-24T15:18:18.798Z,98375.81
2023-05-24T15:23:33.525Z,98362.38
2023-05-24T15:26:05.335Z,98373.16
2023-05-24T15:28:40.380Z,98366.84
2023-05-24T15:31:11.043Z,98367.66
2023-05-24T15:33:41.624Z,98361.72
2023-05-24T15:36:19.545Z,98362.88
2023-05-24T15:38:56.256Z,98363.50
2023-05-24T15:41:33.201Z,98377.00
2023-05-24T15:44:11.902Z,98377.88
2023-05-24T15:46:43.655Z,98377.66
2023-05-24T15:49:18.031Z,98373.03
2023-05-24T15:52:03.469Z,98377.66
2023-05-24T15:57:22.334Z,98371.34
2023-05-24T15:59:53.330Z,98370.03
2023-05-24T16:02:25.705Z,98349.91
2023-05-24T16:05:00.573Z,98365.22
2023-05-24T16:07:35.920Z,98346.19
2023-05-24T16:10:16.409Z,98351.81
2023-05-24T16:12:50.475Z,98346.78
2023-05-24T16:15:21.172Z,98349.38
2023-05-24T16:17:53.290Z,98348.00
2023-05-24T16:20:24.617Z,98351.16
2023-05-24T16:22:58.515Z,98352.84
2023-05-24T16:25:29.147Z,98353.53
2023-05-24T16:28:04.017Z,98351.75
2023-05-24T16:30:40.906Z,98355.78
2023-05-24T16:33:09.547Z,98354.28
2023-05-24T16:35:45.816Z,98360.59
2023-05-24T16:38:19.717Z,98348.50
2023-05-24T16:40:48.177Z,98355.09
2023-05-24T16:43:25.545Z,98359.97
2023-05-24T16:46:05.448Z,98356.28
2023-05-24T16:48:34.515Z,98349.06
2023-05-24T16:51:06.553Z,98355.09
2023-05-24T16:53:37.515Z,98350.84
2023-05-24T16:56:10.801Z,98357.44
2023-05-24T16:58:45.123Z,98358.44
2023-05-24T17:01:22.710Z,98354.13
2023-05-24T17:04:00.160Z,98354.13
2023-05-24T17:06:33.160Z,98351.59
2023-05-24T17:09:04.765Z,98351.84
2023-05-24T17:11:38.817Z,98352.41
2023-05-24T17:14:15.757Z,98360.81
2023-05-24T17:16:46.995Z,98361.16
2023-05-24T17:19:16.812Z,98363.38
2023-05-24T17:21:47.964Z,98354.09
2023-05-24T17:24:21.639Z,98359.84
2023-05-24T17:26:52.576Z,98367.00
2023-05-24T17:29:24.099Z,98373.97
2023-05-24T17:31:56.949Z,98368.84
2023-05-24T17:34:35.508Z,98373.16
2023-05-24T17:37:07.025Z,98378.78
2023-05-24T17:39:55.441Z,98386.75
2023-05-24T17:42:28.801Z,98394.69
2023-05-24T17:45:03.449Z,98394.94
2023-05-24T17:47:34.772Z,98400.88
2023-05-24T17:50:06.907Z,98412.34
2023-05-24T17:52:37.985Z,98422.13
2023-05-24T17:55:12.848Z,98425.03
2023-05-24T17:57:49.611Z,98428.50
2023-05-24T18:00:18.490Z,98419.94
2023-05-24T18:02:55.653Z,98434.34
2023-05-24T18:05:26.612Z,98431.84
2023-05-24T18:08:00.160Z,98436.69
2023-05-24T18:10:30.647Z,98439.16
2023-05-24T18:12:59.252Z,98439.78
2023-05-24T18:15:30.638Z,98442.81
2023-05-24T18:18:01.721Z,98440.03
2023-05-24T18:23:23.053Z,98450.66
2023-05-24T18:26:00.468Z,98451.16
2023-05-24T18:28:30.118Z,98453.94
2023-05-24T18:33:44.477Z,98458.38
2023-05-24T18:36:18.354Z,98453.25
2023-05-24T18:38:49.614Z,98456.13
2023-05-24T18:44:09.026Z,98454.97
2023-05-24T18:46:41.353Z,98460.88
2023-05-24T18:49:18.255Z,98464.13
2023-05-24T18:52:02.646Z,98470.38
2023-05-24T18:54:34.989Z,98474.78
2023-05-24T18:57:09.047Z,98483.34
2023-05-24T18:59:47.505Z,98485.78
2023-05-24T19:02:18.187Z,98483.09
2023-05-24T19:04:49.019Z,98487.47
2023-05-24T19:07:18.779Z,98487.13
2023-05-24T19:09:49.841Z,98480.97
2023-05-24T19:12:20.721Z,98492.06
2023-05-24T19:14:52.277Z,98495.69
2023-05-24T19:17:22.534Z,98493.22
2023-05-24T19:19:54.628Z,98504.41
2023-05-24T19:22:26.287Z,98507.59
2023-05-24T19:24:56.636Z,98510.66
2023-05-24T19:27:30.649Z,98500.31
2023-05-24T19:30:02.300Z,98509.03
2023-05-24T19:32:39.747Z,98510.31
2023-05-24T19:35:14.254Z,98515.31
2023-05-24T19:40:30.982Z,98527.41
2023-05-24T19:45:44.878Z,98535.25
2023-05-24T19:48:25.093Z,98535.84
2023-05-24T19:50:55.622Z,98533.00
2023-05-24T19:53:27.306Z,98537.59
2023-05-24T19:55:59.077Z,98535.72
2023-05-24T19:58:30.695Z,98535.25
2023-05-24T20:01:00.777Z,98529.84
2023-05-24T20:03:55.127Z,98527.19
2023-05-24T20:06:26.641Z,98537.94
2023-05-24T20:09:07.514Z,98545.16
2023-05-24T20:14:23.994Z,98548.78
2023-05-24T20:16:54.063Z,98547.47
2023-05-24T20:19:24.655Z,98551.03
2023-05-24T20:22:00.711Z,98544.03
2023-05-24T20:24:37.353Z,98547.63
2023-05-24T20:27:14.955Z,98562.88
2023-05-24T20:29:44.291Z,98555.50
2023-05-24T20:32:14.770Z,98561.91
2023-05-24T20:34:45.644Z,98551.19
2023-05-24T20:37:21.654Z,98560.59
2023-05-24T20:39:55.450Z,98562.13
2023-05-24T20:42:26.790Z,98560.50
2023-05-24T20:45:00.916Z,98564.09
2023-05-24T20:47:42.147Z,98566.34
2023-05-24T20:50:17.944Z,98576.66
2023-05-24T20:52:55.540Z,98570.72
2023-05-24T20:55:29.291Z,98571.88
2023-05-24T20:58:00.495Z,98577.13
2023-05-24T21:00:34.396Z,98572.81
2023-05-24T21:03:06.642Z,98565.28
2023-05-24T21:05:40.244Z,98570.16
2023-05-24T21:08:11.127Z,98569.97
2023-05-24T21:10:41.703Z,98568.22
2023-05-24T21:13:12.493Z,98569.78
2023-05-24T21:15:46.966Z,98563.50
2023-05-24T21:18:18.971Z,98577.28
2023-05-24T21:20:47.365Z,98577.00
2023-05-24T21:23:16.932Z,98575.28
2023-05-24T21:25:50.438Z,98572.25
2023-05-24T21:28:19.260Z,98569.47
2023-05-24T21:30:52.888Z,98575.50
2023-05-24T21:33:23.460Z,98569.22
2023-05-24T21:35:58.492Z,98575.03
2023-05-24T21:38:31.093Z,98575.03
2023-05-24T21:41:04.631Z,98581.00
2023-05-24T21:43:33.011Z,98578.50
2023-05-24T21:46:04.147Z,98577.72
2023-05-24T21:48:47.908Z,98566.84
2023-05-24T21:51:22.120Z,98574.72
2023-05-24T21:54:15.359Z,98567.59
2023-05-24T21:56:45.648Z,98580.72
2023-05-24T21:59:24.154Z,98581.53
2023-05-24T22:02:01.029Z,98582.34
2023-05-24T22:04:31.205Z,98580.59
2023-05-24T22:07:04.382Z,98586.06
2023-05-24T22:09:37.754Z,98576.06
2023-05-24T22:12:20.976Z,98573.59
2023-05-24T22:15:03.732Z,98582.09
2023-05-24T22:17:38.102Z,98568.69
2023-05-24T22:20:11.714Z,98574.72
2023-05-24T22:22:55.403Z,98576.13
2023-05-24T22:25:27.692Z,98578.72
2023-05-24T22:28:01.606Z,98571.63
2023-05-24T22:30:36.397Z,98575.88
2023-05-24T22:33:07.859Z,98578.31
2023-05-24T22:35:40.748Z,98577.63
2023-05-24T22:38:12.295Z,98583.69
2023-05-24T22:40:45.376Z,98587.03
2023-05-24T22:43:21.405Z,98589.00
2023-05-24T22:45:51.486Z,98583.09
2023-05-24T22:48:24.682Z,98586.88
2023-05-24T22:51:02.467Z,98580.63
2023-05-24T22:53:32.609Z,98582.88
2023-05-24T22:56:13.383Z,98594.63
2023-05-24T22:58:43.042Z,98591.50
2023-05-24T23:01:12.238Z,98593.94
2023-05-24T23:04:11.460Z,98592.31
2023-05-24T23:06:49.033Z,98593.63
2023-05-24T23:09:35.332Z,98597.72
2023-05-24T23:12:08.011Z,98593.00
2023-05-24T23:14:41.880Z,98596.94
2023-05-24T23:17:20.803Z,98591.84
2023-05-24T23:20:11.147Z,98594.16
2023-05-24T23:22:53.087Z,98600.00
2023-05-24T23:25:30.881Z,98603.97
2023-05-24T23:28:03.696Z,98607.72
2023-05-24T23:30:39.683Z,98603.75
2023-05-24T23:33:10.446Z,98601.44
2023-05-24T23:35:42.168Z,98602.78
2023-05-24T23:38:16.186Z,98606.56
2023-05-24T23:40:47.101Z,98598.19
2023-05-24T23:43:29.125Z,98598.28
2023-05-24T23:46:05.872Z,98602.16
2023-05-24T23:51:25.333Z,98604.53
2023-05-24T23:53:56.669Z,98606.31
2023-05-24T23:56:28.211Z,98611.19
2023-05-24T23:58:58.476Z,98542.22
